sensor_id;sensor_type;location;lat;lon;timestamp;pressure;altitude;pressure_sealevel;temperature;humidity
69035;BME280;56091;55.756;37.412;2023-07-13T00:02:32;98117.56;;;11.58;84.41
69035;BME280;56091;55.756;37.412;2023-07-13T00:07:34;98116.22;;;11.55;84.45
69035;BME280;56091;55.756;37.412;2023-07-13T00:12:37;98115.47;;;11.49;84.46
69035;BME280;56091;55.756;37.412;2023-07-13T00:17:38;98124.84;;;11.57;84.48
69035;BME280;56091;55.756;37.412;2023-07-13T00:22:39;98122.97;;;11.58;84.49
69035;BME280;56091;55.756;37.412;2023-07-13T00:27:44;98110.63;;;11.51;84.43
69035;BME280;56091;55.756;37.412;2023-07-13T00:32:45;98044.59;;;11.20;84.51
69035;BME280;56091;55.756;37.412;2023-07-13T00:37:46;98107.59;;;11.53;84.77
69035;BME280;56091;55.756;37.412;2023-07-13T00:42:47;98098.16;;;11.56;84.61
69035;BME280;56091;55.756;37.412;2023-07-13T00:47:50;98102.44;;;11.57;84.83
69035;BME280;56091;55.756;37.412;2023-07-13T00:52:56;98103.81;;;11.54;85.00
69035;BME280;56091;55.756;37.412;2023-07-13T00:57:59;98115.94;;;11.57;84.95
69035;BME280;56091;55.756;37.412;2023-07-13T01:02:59;98104.63;;;11.55;85.28
69035;BME280;56091;55.756;37.412;2023-07-13T01:08:05;98101.41;;;11.52;85.36
69035;BME280;56091;55.756;37.412;2023-07-13T01:13:10;98094.41;;;11.51;85.48
69035;BME280;56091;55.756;37.412;2023-07-13T01:18:16;98083.97;;;11.45;85.75
69035;BME280;56091;55.756;37.412;2023-07-13T01:23:18;98094.09;;;11.53;85.78
69035;BME280;56091;55.756;37.412;2023-07-13T01:28:19;98093.03;;;11.54;85.91
69035;BME280;56091;55.756;37.412;2023-07-13T01:33:20;98076.94;;;11.44;85.71
69035;BME280;56091;55.756;37.412;2023-07-13T01:38:23;98081.19;;;11.50;85.85
69035;BME280;56091;55.756;37.412;2023-07-13T01:43:24;98089.53;;;11.53;86.14
69035;BME280;56091;55.756;37.412;2023-07-13T01:48:24;98077.34;;;11.56;86.14
69035;BME280;56091;55.756;37.412;2023-07-13T01:53:25;98081.63;;;11.57;85.91
69035;BME280;56091;55.756;37.412;2023-07-13T01:58:28;98070.53;;;11.59;85.84
69035;BME280;56091;55.756;37.412;2023-07-13T02:03:30;98067.28;;;11.62;85.73
69035;BME280;56091;55.756;37.412;2023-07-13T02:08:33;98069.09;;;11.66;85.52
69035;BME280;56091;55.756;37.412;2023-07-13T02:13:34;98059.91;;;11.67;85.31
69035;BME280;56091;55.756;37.412;2023-07-13T02:18:35;98059.00;;;11.72;84.94
69035;BME280;56091;55.756;37.412;2023-07-13T02:23:40;98059.84;;;11.72;85.32
69035;BME280;56091;55.756;37.412;2023-07-13T02:28:40;98067.34;;;11.76;85.10
69035;BME280;56091;55.756;37.412;2023-07-13T02:33:44;98059.53;;;11.74;85.49
69035;BME280;56091;55.756;37.412;2023-07-13T02:38:49;98047.41;;;11.71;85.60
69035;BME280;56091;55.756;37.412;2023-07-13T02:43:50;98043.19;;;11.84;85.24
69035;BME280;56091;55.756;37.412;2023-07-13T02:48:53;98043.41;;;11.88;84.76
69035;BME280;56091;55.756;37.412;2023-07-13T02:53:54;98033.75;;;11.82;85.10
69035;BME280;56091;55.756;37.412;2023-07-13T02:58:55;98049.06;;;11.91;84.98
69035;BME280;56091;55.756;37.412;2023-07-13T03:03:56;98042.69;;;12.01;84.45
69035;BME280;56091;55.756;37.412;2023-07-13T03:08:59;98032.59;;;12.07;84.07
69035;BME280;56091;55.756;37.412;2023-07-13T03:14:09;98035.13;;;12.17;83.52
69035;BME280;56091;55.756;37.412;2023-07-13T03:19:12;98039.13;;;12.20;83.30
69035;BME280;56091;55.756;37.412;2023-07-13T03:24:16;98046.31;;;12.29;83.09
69035;BME280;56091;55.756;37.412;2023-07-13T03:29:18;98044.75;;;12.23;83.25
69035;BME280;56091;55.756;37.412;2023-07-13T03:34:20;98049.81;;;12.30;83.10
69035;BME280;56091;55.756;37.412;2023-07-13T03:39:20;98055.84;;;12.41;82.50
69035;BME280;56091;55.756;37.412;2023-07-13T03:44:24;98055.66;;;12.51;82.07
69035;BME280;56091;55.756;37.412;2023-07-13T03:49:33;98056.09;;;12.58;81.81
69035;BME280;56091;55.756;37.412;2023-07-13T03:54:34;98062.59;;;12.57;82.09
69035;BME280;56091;55.756;37.412;2023-07-13T03:59:36;98056.09;;;12.58;81.91
69035;BME280;56091;55.756;37.412;2023-07-13T04:04:37;98065.91;;;12.68;81.45
69035;BME280;56091;55.756;37.412;2023-07-13T04:09:41;98067.50;;;12.69;81.49
69035;BME280;56091;55.756;37.412;2023-07-13T04:14:44;98056.09;;;12.72;81.36
69035;BME280;56091;55.756;37.412;2023-07-13T04:19:45;98045.69;;;12.65;81.33
69035;BME280;56091;55.756;37.412;2023-07-13T04:24:49;98072.66;;;12.84;81.02
69035;BME280;56091;55.756;37.412;2023-07-13T04:29:52;98056.94;;;12.86;80.76
69035;BME280;56091;55.756;37.412;2023-07-13T04:34:59;98049.09;;;13.13;79.85
69035;BME280;56091;55.756;37.412;2023-07-13T04:40:00;98050.16;;;13.31;78.36
69035;BME280;56091;55.756;37.412;2023-07-13T04:45:00;98046.09;;;13.56;77.54
69035;BME280;56091;55.756;37.412;2023-07-13T04:50:02;98047.94;;;13.83;76.28
69035;BME280;56091;55.756;37.412;2023-07-13T04:55:05;98059.16;;;13.90;75.98
69035;BME280;56091;55.756;37.412;2023-07-13T05:00:06;98066.63;;;14.07;75.72
69035;BME280;56091;55.756;37.412;2023-07-13T05:05:07;98064.66;;;14.21;74.75
69035;BME280;56091;55.756;37.412;2023-07-13T05:10:09;98074.84;;;14.16;74.53
69035;BME280;56091;55.756;37.412;2023-07-13T05:15:11;98063.34;;;14.19;73.72
69035;BME280;56091;55.756;37.412;2023-07-13T05:20:12;98074.41;;;14.22;73.69
69035;BME280;56091;55.756;37.412;2023-07-13T05:25:13;98058.94;;;14.45;71.22
69035;BME280;56091;55.756;37.412;2023-07-13T05:30:14;98069.69;;;14.82;71.29
69035;BME280;56091;55.756;37.412;2023-07-13T05:35:18;98067.25;;;15.12;69.35
69035;BME280;56091;55.756;37.412;2023-07-13T05:40:19;98072.72;;;15.20;67.47
69035;BME280;56091;55.756;37.412;2023-07-13T05:45:20;98057.78;;;15.40;68.14
69035;BME280;56091;55.756;37.412;2023-07-13T05:50:21;98059.56;;;15.62;65.19
69035;BME280;56091;55.756;37.412;2023-07-13T05:55:22;98062.13;;;15.50;65.42
69035;BME280;56091;55.756;37.412;2023-07-13T06:00:23;98046.00;;;15.71;65.06
69035;BME280;56091;55.756;37.412;2023-07-13T06:05:25;98050.38;;;15.90;64.44
69035;BME280;56091;55.756;37.412;2023-07-13T06:10:25;98052.28;;;15.98;63.85
69035;BME280;56091;55.756;37.412;2023-07-13T06:15:26;98048.59;;;16.03;62.77
69035;BME280;56091;55.756;37.412;2023-07-13T06:20:30;98073.38;;;15.92;62.15
69035;BME280;56091;55.756;37.412;2023-07-13T06:25:36;98025.88;;;16.07;61.20
69035;BME280;56091;55.756;37.412;2023-07-13T06:30:40;98029.22;;;16.30;61.09
69035;BME280;56091;55.756;37.412;2023-07-13T06:35:41;98023.72;;;16.56;59.68
69035;BME280;56091;55.756;37.412;2023-07-13T06:40:42;98030.22;;;16.73;60.26
69035;BME280;56091;55.756;37.412;2023-07-13T06:45:46;98035.50;;;16.69;59.45
69035;BME280;56091;55.756;37.412;2023-07-13T06:50:49;98028.84;;;16.58;58.60
69035;BME280;56091;55.756;37.412;2023-07-13T06:55:51;98039.75;;;16.49;59.80
69035;BME280;56091;55.756;37.412;2023-07-13T07:00:55;98044.34;;;16.57;59.54
69035;BME280;56091;55.756;37.412;2023-07-13T07:06:18;98034.28;;;16.58;59.31
69035;BME280;56091;55.756;37.412;2023-07-13T07:11:24;98024.38;;;16.45;59.54
69035;BME280;56091;55.756;37.412;2023-07-13T07:16:25;98029.22;;;16.39;59.81
69035;BME280;56091;55.756;37.412;2023-07-13T07:21:26;98029.50;;;16.46;60.21
69035;BME280;56091;55.756;37.412;2023-07-13T07:26:27;98038.00;;;16.36;60.66
69035;BME280;56091;55.756;37.412;2023-07-13T07:31:28;98036.38;;;16.44;60.47
69035;BME280;56091;55.756;37.412;2023-07-13T07:36:29;98028.69;;;16.46;60.56
69035;BME280;56091;55.756;37.412;2023-07-13T07:41:30;98041.50;;;16.45;60.74
69035;BME280;56091;55.756;37.412;2023-07-13T07:46:30;98052.22;;;16.50;61.19
69035;BME280;56091;55.756;37.412;2023-07-13T07:51:31;98038.47;;;16.47;60.98
69035;BME280;56091;55.756;37.412;2023-07-13T07:56:32;98056.94;;;16.79;61.32
69035;BME280;56091;55.756;37.412;2023-07-13T08:01:33;98056.81;;;16.67;59.37
69035;BME280;56091;55.756;37.412;2023-07-13T08:06:34;98063.69;;;16.82;59.89
69035;BME280;56091;55.756;37.412;2023-07-13T08:11:35;98054.78;;;16.55;60.84
69035;BME280;56091;55.756;37.412;2023-07-13T08:16:36;98057.06;;;16.36;60.09
69035;BME280;56091;55.756;37.412;2023-07-13T08:21:38;98071.00;;;16.17;61.35
69035;BME280;56091;55.756;37.412;2023-07-13T08:26:39;98064.59;;;15.95;62.23
69035;BME280;56091;55.756;37.412;2023-07-13T08:31:40;98067.00;;;16.06;64.30
69035;BME280;56091;55.756;37.412;2023-07-13T08:36:40;98057.72;;;16.15;64.93
69035;BME280;56091;55.756;37.412;2023-07-13T08:41:41;98080.09;;;15.95;67.93
69035;BME280;56091;55.756;37.412;2023-07-13T08:46:44;98082.19;;;15.80;69.19
69035;BME280;56091;55.756;37.412;2023-07-13T08:56:47;98086.88;;;15.57;70.72
69035;BME280;56091;55.756;37.412;2023-07-13T09:17:41;98095.00;;;15.40;74.47
69035;BME280;56091;55.756;37.412;2023-07-13T09:22:45;98083.94;;;15.36;74.55
69035;BME280;56091;55.756;37.412;2023-07-13T09:27:47;98093.22;;;15.35;77.13
69035;BME280;56091;55.756;37.412;2023-07-13T09:32:51;98108.75;;;15.03;79.98
69035;BME280;56091;55.756;37.412;2023-07-13T09:37:57;98103.50;;;14.76;80.12
69035;BME280;56091;55.756;37.412;2023-07-13T09:42:58;98095.88;;;14.78;83.30
69035;BME280;56091;55.756;37.412;2023-07-13T09:48:04;98095.19;;;14.50;87.19
69035;BME280;56091;55.756;37.412;2023-07-13T09:53:15;98101.66;;;14.40;88.49
69035;BME280;56091;55.756;37.412;2023-07-13T09:58:24;98107.69;;;14.37;86.96
69035;BME280;56091;55.756;37.412;2023-07-13T10:03:30;98103.69;;;14.34;86.70
69035;BME280;56091;55.756;37.412;2023-07-13T10:08:36;98091.50;;;14.23;87.18
69035;BME280;56091;55.756;37.412;2023-07-13T10:19:23;98095.22;;;13.91;87.69
69035;BME280;56091;55.756;37.412;2023-07-13T10:29:29;98112.09;;;13.74;90.50
69035;BME280;56091;55.756;37.412;2023-07-13T10:34:35;98111.72;;;13.66;91.83
69035;BME280;56091;55.756;37.412;2023-07-13T10:39:37;98117.94;;;13.53;92.61
69035;BME280;56091;55.756;37.412;2023-07-13T10:44:42;98132.00;;;13.41;95.93
69035;BME280;56091;55.756;37.412;2023-07-13T10:49:43;98119.03;;;13.24;98.90
69035;BME280;56091;55.756;37.412;2023-07-13T10:54:45;98115.28;;;13.06;99.74
69035;BME280;56091;55.756;37.412;2023-07-13T11:00:23;98113.69;;;13.19;100.00
69035;BME280;56091;55.756;37.412;2023-07-13T11:05:30;98108.47;;;13.23;100.00
69035;BME280;56091;55.756;37.412;2023-07-13T11:11:00;98114.06;;;13.13;100.00
69035;BME280;56091;55.756;37.412;2023-07-13T11:16:12;98099.75;;;13.12;100.00
69035;BME280;56091;55.756;37.412;2023-07-13T11:21:19;98101.88;;;13.15;100.00
69035;BME280;56091;55.756;37.412;2023-07-13T11:26:40;98093.75;;;13.29;100.00
69035;BME280;56091;55.756;37.412;2023-07-13T11:31:42;98098.78;;;13.36;100.00
69035;BME280;56091;55.756;37.412;2023-07-13T11:36:45;98084.84;;;13.42;100.00
69035;BME280;56091;55.756;37.412;2023-07-13T11:41:54;98087.44;;;13.47;99.46
69035;BME280;56091;55.756;37.412;2023-07-13T11:47:14;98094.44;;;13.48;97.97
69035;BME280;56091;55.756;37.412;2023-07-13T11:52:26;98095.34;;;13.58;96.74
69035;BME280;56091;55.756;37.412;2023-07-13T11:57:33;98090.06;;;13.53;96.33
69035;BME280;56091;55.756;37.412;2023-07-13T12:02:47;98111.63;;;13.44;95.78
69035;BME280;56091;55.756;37.412;2023-07-13T12:07:51;98110.69;;;13.48;94.65
69035;BME280;56091;55.756;37.412;2023-07-13T12:13:00;98098.56;;;13.46;96.07
69035;BME280;56091;55.756;37.412;2023-07-13T12:18:01;98080.63;;;13.36;98.02
69035;BME280;56091;55.756;37.412;2023-07-13T12:23:05;98093.88;;;13.38;99.58
69035;BME280;56091;55.756;37.412;2023-07-13T12:28:33;98090.31;;;13.23;100.00
69035;BME280;56091;55.756;37.412;2023-07-13T12:33:34;98093.25;;;13.13;99.10
69035;BME280;56091;55.756;37.412;2023-07-13T12:38:38;98086.50;;;13.11;100.00
69035;BME280;56091;55.756;37.412;2023-07-13T12:43:39;98083.22;;;13.00;100.00
69035;BME280;56091;55.756;37.412;2023-07-13T12:48:41;98075.47;;;12.93;100.00
69035;BME280;56091;55.756;37.412;2023-07-13T12:53:48;98078.38;;;12.97;100.00
69035;BME280;56091;55.756;37.412;2023-07-13T12:58:52;98072.97;;;12.97;100.00
69035;BME280;56091;55.756;37.412;2023-07-13T13:03:55;98058.44;;;12.79;100.00
69035;BME280;56091;55.756;37.412;2023-07-13T13:08:58;98081.19;;;12.92;100.00
69035;BME280;56091;55.756;37.412;2023-07-13T13:14:12;98082.00;;;12.92;100.00
69035;BME280;56091;55.756;37.412;2023-07-13T13:19:15;98079.66;;;12.85;100.00
69035;BME280;56091;55.756;37.412;2023-07-13T13:24:20;98064.94;;;12.78;100.00
69035;BME280;56091;55.756;37.412;2023-07-13T13:29:23;98066.72;;;12.68;100.00
69035;BME280;56091;55.756;37.412;2023-07-13T13:34:27;98073.31;;;12.62;100.00
69035;BME280;56091;55.756;37.412;2023-07-13T13:39:35;98058.66;;;12.49;100.00
69035;BME280;56091;55.756;37.412;2023-07-13T13:44:37;98069.09;;;12.56;100.00
69035;BME280;56091;55.756;37.412;2023-07-13T13:49:38;98057.28;;;12.52;100.00
69035;BME280;56091;55.756;37.412;2023-07-13T13:54:39;98068.91;;;12.53;100.00
69035;BME280;56091;55.756;37.412;2023-07-13T13:59:39;98066.28;;;12.47;100.00
69035;BME280;56091;55.756;37.412;2023-07-13T14:04:41;98021.16;;;12.29;100.00
69035;BME280;56091;55.756;37.412;2023-07-13T14:09:55;98055.66;;;12.51;100.00
69035;BME280;56091;55.756;37.412;2023-07-13T14:14:57;98051.66;;;12.48;100.00
69035;BME280;56091;55.756;37.412;2023-07-13T14:20:03;98061.06;;;12.51;100.00
69035;BME280;56091;55.756;37.412;2023-07-13T14:25:09;98061.38;;;12.49;100.00
69035;BME280;56091;55.756;37.412;2023-07-13T14:30:15;98059.56;;;12.45;100.00
69035;BME280;56091;55.756;37.412;2023-07-13T14:35:18;98069.16;;;12.37;100.00
69035;BME280;56091;55.756;37.412;2023-07-13T14:40:31;98060.03;;;12.33;100.00
69035;BME280;56091;55.756;37.412;2023-07-13T14:45:35;98036.75;;;12.18;100.00
69035;BME280;56091;55.756;37.412;2023-07-13T14:50:41;98049.28;;;12.28;100.00
69035;BME280;56091;55.756;37.412;2023-07-13T14:55:42;98049.00;;;12.29;100.00
69035;BME280;56091;55.756;37.412;2023-07-13T15:00:44;98060.31;;;12.32;100.00
69035;BME280;56091;55.756;37.412;2023-07-13T15:05:47;98058.63;;;12.36;100.00
69035;BME280;56091;55.756;37.412;2023-07-13T15:10:48;98060.44;;;12.40;100.00
69035;BME280;56091;55.756;37.412;2023-07-13T15:15:52;98058.75;;;12.44;100.00
69035;BME280;56091;55.756;37.412;2023-07-13T15:20:57;98055.84;;;12.41;100.00
69035;BME280;56091;55.756;37.412;2023-07-13T15:26:03;98041.63;;;12.35;100.00
69035;BME280;56091;55.756;37.412;2023-07-13T15:31:21;98043.41;;;12.40;100.00
69035;BME280;56091;55.756;37.412;2023-07-13T15:36:24;98016.44;;;12.35;100.00
69035;BME280;56091;55.756;37.412;2023-07-13T15:41:27;98025.19;;;12.45;100.00
69035;BME280;56091;55.756;37.412;2023-07-13T15:46:28;98024.63;;;12.48;100.00
69035;BME280;56091;55.756;37.412;2023-07-13T15:51:30;98026.91;;;12.55;100.00
69035;BME280;56091;55.756;37.412;2023-07-13T15:56:36;98034.41;;;12.44;100.00
69035;BME280;56091;55.756;37.412;2023-07-13T16:01:38;98034.25;;;12.55;100.00
69035;BME280;56091;55.756;37.412;2023-07-13T16:06:41;98039.56;;;12.60;100.00
69035;BME280;56091;55.756;37.412;2023-07-13T16:11:42;98049.34;;;12.56;100.00
69035;BME280;56091;55.756;37.412;2023-07-13T16:16:49;98034.72;;;12.43;100.00
69035;BME280;56091;55.756;37.412;2023-07-13T16:21:51;98054.88;;;12.50;100.00
69035;BME280;56091;55.756;37.412;2023-07-13T16:26:52;98026.69;;;12.38;100.00
69035;BME280;56091;55.756;37.412;2023-07-13T16:32:05;98050.25;;;12.51;100.00
69035;BME280;56091;55.756;37.412;2023-07-13T16:37:19;98038.72;;;12.45;100.00
69035;BME280;56091;55.756;37.412;2023-07-13T16:42:21;98045.22;;;12.44;100.00
69035;BME280;56091;55.756;37.412;2023-07-13T16:47:23;97997.91;;;12.14;100.00
69035;BME280;56091;55.756;37.412;2023-07-13T16:52:24;98026.97;;;12.36;100.00
69035;BME280;56091;55.756;37.412;2023-07-13T16:57:31;98030.41;;;12.42;100.00
69035;BME280;56091;55.756;37.412;2023-07-13T17:02:36;98027.41;;;12.43;100.00
69035;BME280;56091;55.756;37.412;2023-07-13T17:07:38;98013.53;;;12.31;100.00
69035;BME280;56091;55.756;37.412;2023-07-13T17:12:43;98031.19;;;12.42;100.00
69035;BME280;56091;55.756;37.412;2023-07-13T17:17:47;98025.19;;;12.45;100.00
69035;BME280;56091;55.756;37.412;2023-07-13T17:22:52;98030.41;;;12.42;100.00
69035;BME280;56091;55.756;37.412;2023-07-13T17:27:55;98040.50;;;12.36;100.00
69035;BME280;56091;55.756;37.412;2023-07-13T17:32:56;98027.88;;;12.32;100.00
69035;BME280;56091;55.756;37.412;2023-07-13T17:37:59;98029.59;;;12.41;100.00
69035;BME280;56091;55.756;37.412;2023-07-13T17:43:01;98036.81;;;12.46;100.00
69035;BME280;56091;55.756;37.412;2023-07-13T17:48:02;98012.59;;;12.41;100.00
69035;BME280;56091;55.756;37.412;2023-07-13T17:53:16;97983.69;;;12.22;100.00
69035;BME280;56091;55.756;37.412;2023-07-13T17:58:19;98006.97;;;12.37;100.00
69035;BME280;56091;55.756;37.412;2023-07-13T18:03:25;98021.19;;;12.43;100.00
69035;BME280;56091;55.756;37.412;2023-07-13T18:08:32;98016.88;;;12.42;100.00
69035;BME280;56091;55.756;37.412;2023-07-13T18:13:36;98033.44;;;12.54;100.00
69035;BME280;56091;55.756;37.412;2023-07-13T18:18:43;98042.94;;;12.52;100.00
69035;BME280;56091;55.756;37.412;2023-07-13T18:23:45;98038.72;;;12.45;100.00
69035;BME280;56091;55.756;37.412;2023-07-13T18:28:47;98058.38;;;12.51;100.00
69035;BME280;56091;55.756;37.412;2023-07-13T18:33:50;98061.06;;;12.51;100.00
69035;BME280;56091;55.756;37.412;2023-07-13T18:38:53;98078.81;;;12.57;100.00
69035;BME280;56091;55.756;37.412;2023-07-13T18:43:54;98086.94;;;12.57;100.00
69035;BME280;56091;55.756;37.412;2023-07-13T18:48:55;98073.63;;;12.61;100.00
69035;BME280;56091;55.756;37.412;2023-07-13T18:53:56;98074.59;;;12.51;100.00
69035;BME280;56091;55.756;37.412;2023-07-13T18:58:57;98074.13;;;12.63;100.00
69035;BME280;56091;55.756;37.412;2023-07-13T19:03:58;98066.41;;;12.70;100.00
69035;BME280;56091;55.756;37.412;2023-07-13T19:08:59;98078.34;;;12.69;100.00
69035;BME280;56091;55.756;37.412;2023-07-13T19:14:00;98076.94;;;12.72;100.00
69035;BME280;56091;55.756;37.412;2023-07-13T19:19:01;60269.00;;;-146.83;100.00
69035;BME280;56091;55.756;37.412;2023-07-13T19:24:02;60269.00;;;-146.83;100.00
69035;BME280;56091;55.756;37.412;2023-07-13T19:29:03;60269.00;;;-146.83;100.00
69035;BME280;56091;55.756;37.412;2023-07-13T19:44:34;60269.00;;;-146.83;100.00
69035;BME280;56091;55.756;37.412;2023-07-13T19:49:36;60269.00;;;-146.83;100.00
69035;BME280;56091;55.756;37.412;2023-07-13T19:54:39;60269.00;;;-146.83;100.00
69035;BME280;56091;55.756;37.412;2023-07-13T19:59:42;60269.00;;;-146.83;100.00
69035;BME280;56091;55.756;37.412;2023-07-13T20:04:47;60269.00;;;-146.83;100.00
69035;BME280;56091;55.756;37.412;2023-07-13T20:09:50;60269.00;;;-146.83;100.00
69035;BME280;56091;55.756;37.412;2023-07-13T20:14:54;60269.00;;;-146.83;100.00
69035;BME280;56091;55.756;37.412;2023-07-13T20:21:33;60269.00;;;-146.83;100.00
69035;BME280;56091;55.756;37.412;2023-07-13T20:27:59;60269.00;;;-146.83;100.00
69035;BME280;56091;55.756;37.412;2023-07-13T20:34:32;60269.00;;;-146.83;100.00
69035;BME280;56091;55.756;37.412;2023-07-13T20:41:03;60269.00;;;-146.83;100.00
69035;BME280;56091;55.756;37.412;2023-07-13T20:47:29;60269.00;;;-146.83;100.00
69035;BME280;56091;55.756;37.412;2023-07-13T20:53:55;60269.00;;;-146.83;100.00
69035;BME280;56091;55.756;37.412;2023-07-13T21:00:23;60269.00;;;-146.83;100.00
69035;BME280;56091;55.756;37.412;2023-07-13T21:06:49;60269.00;;;-146.83;100.00
69035;BME280;56091;55.756;37.412;2023-07-13T21:13:15;60269.00;;;-146.83;100.00
69035;BME280;56091;55.756;37.412;2023-07-13T21:19:42;60269.00;;;-146.83;100.00
69035;BME280;56091;55.756;37.412;2023-07-13T21:26:09;60269.00;;;-146.83;100.00
69035;BME280;56091;55.756;37.412;2023-07-13T21:32:36;60269.00;;;-146.83;100.00
69035;BME280;56091;55.756;37.412;2023-07-13T21:39:03;60269.00;;;-146.83;100.00
69035;BME280;56091;55.756;37.412;2023-07-13T21:45:29;60269.00;;;-146.83;100.00
69035;BME280;56091;55.756;37.412;2023-07-13T21:51:55;60269.00;;;-146.83;100.00
69035;BME280;56091;55.756;37.412;2023-07-13T21:58:27;60269.00;;;-146.83;100.00
69035;BME280;56091;55.756;37.412;2023-07-13T22:04:53;60269.00;;;-146.83;100.00
69035;BME280;56091;55.756;37.412;2023-07-13T22:11:20;60269.00;;;-146.83;100.00
69035;BME280;56091;55.756;37.412;2023-07-13T22:16:27;60269.00;;;-146.83;100.00
69035;BME280;56091;55.756;37.412;2023-07-13T22:21:29;60269.00;;;-146.83;100.00
69035;BME280;56091;55.756;37.412;2023-07-13T22:26:34;60269.00;;;-146.83;100.00
69035;BME280;56091;55.756;37.412;2023-07-13T22:31:36;60269.00;;;-146.83;100.00
69035;BME280;56091;55.756;37.412;2023-07-13T22:36:37;60269.00;;;-146.83;100.00
69035;BME280;56091;55.756;37.412;2023-07-13T22:41:42;60269.00;;;-146.83;100.00
69035;BME280;56091;55.756;37.412;2023-07-13T22:46:43;60269.00;;;-146.83;100.00
69035;BME280;56091;55.756;37.412;2023-07-13T22:51:43;60269.00;;;-146.83;100.00
69035;BME280;56091;55.756;37.412;2023-07-13T22:56:44;60269.00;;;-146.83;100.00
69035;BME280;56091;55.756;37.412;2023-07-13T23:02:05;60269.00;;;-146.83;100.00
69035;BME280;56091;55.756;37.412;2023-07-13T23:07:15;60269.00;;;-146.83;100.00
69035;BME280;56091;55.756;37.412;2023-07-13T23:12:16;60269.00;;;-146.83;100.00
69035;BME280;56091;55.756;37.412;2023-07-13T23:17:19;60269.00;;;-146.83;100.00
69035;BME280;56091;55.756;37.412;2023-07-13T23:22:26;60269.00;;;-146.83;100.00
69035;BME280;56091;55.756;37.412;2023-07-13T23:27:27;60269.00;;;-146.83;100.00
69035;BME280;56091;55.756;37.412;2023-07-13T23:32:28;60269.00;;;-146.83;100.00
69035;BME280;56091;55.756;37.412;2023-07-13T23:37:31;60269.00;;;-146.83;100.00
69035;BME280;56091;55.756;37.412;2023-07-13T23:42:32;60269.00;;;-146.83;100.00
69035;BME280;56091;55.756;37.412;2023-07-13T23:47:33;60269.00;;;-146.83;100.00
69035;BME280;56091;55.756;37.412;2023-07-13T23:52:37;60269.00;;;-146.83;100.00
69035;BME280;56091;55.756;37.412;2023-07-13T23:57:41;60269.00;;;-146.83;100.00
